createdAt,value
2018-09-21T00:00:11.068Z,39.04
2018-09-21T00:02:37.457Z,39.09
2018-09-21T00:05:03.829Z,39.06
2018-09-21T00:07:30.192Z,39.11
2018-09-21T00:09:56.592Z,39.13
2018-09-21T00:12:23.001Z,39.17
2018-09-21T00:14:49.539Z,39.26
2018-09-21T00:17:16.083Z,39.31
2018-09-21T00:19:42.503Z,39.35
2018-09-21T00:22:08.827Z,39.34
2018-09-21T00:24:35.312Z,39.36
2018-09-21T00:27:01.768Z,39.39
2018-09-21T00:29:28.135Z,39.49
2018-09-21T00:31:54.672Z,39.54
2018-09-21T00:34:21.208Z,39.51
2018-09-21T00:36:47.625Z,39.62
2018-09-21T00:39:14.009Z,39.62
2018-09-21T00:41:40.356Z,39.68
2018-09-21T00:44:06.748Z,39.76
2018-09-21T00:46:33.120Z,39.85
2018-09-21T00:48:59.661Z,39.86
2018-09-21T00:51:26.199Z,39.85
2018-09-21T00:53:52.683Z,39.87
2018-09-21T00:56:19.026Z,40.01
2018-09-21T00:58:45.422Z,39.99
2018-09-21T01:01:11.754Z,40.03
2018-09-21T01:03:38.188Z,40.58
2018-09-21T01:06:04.591Z,40.78
2018-09-21T01:08:30.957Z,41.29
2018-09-21T01:10:57.462Z,41.51
2018-09-21T01:13:23.841Z,41.78
2018-09-21T01:15:50.218Z,41.68
2018-09-21T01:18:16.605Z,41.87
2018-09-21T01:20:42.983Z,42.14
2018-09-21T01:23:09.370Z,42.34
2018-09-21T01:25:35.856Z,42.26
2018-09-21T01:28:02.231Z,42.22
2018-09-21T01:30:28.743Z,42.36
2018-09-21T01:32:55.243Z,42.29
2018-09-21T01:35:21.616Z,42.45
2018-09-21T01:37:48.118Z,42.42
2018-09-21T01:40:14.507Z,42.29
2018-09-21T01:42:40.886Z,42.45
2018-09-21T01:45:07.238Z,42.48
2018-09-21T01:47:33.646Z,42.39
2018-09-21T01:50:00.034Z,42.65
2018-09-21T01:52:26.398Z,42.45
2018-09-21T01:54:52.942Z,42.55
2018-09-21T01:57:19.304Z,42.52
2018-09-21T01:59:45.745Z,42.59
2018-09-21T02:02:12.091Z,42.64
2018-09-21T02:04:38.464Z,42.47
2018-09-21T02:07:04.854Z,42.36
2018-09-21T02:09:31.349Z,42.66
2018-09-21T02:11:57.767Z,42.68
2018-09-21T02:14:24.136Z,42.56
2018-09-21T02:16:50.607Z,42.81
2018-09-21T02:19:17.015Z,42.87
2018-09-21T02:21:43.355Z,42.74
2018-09-21T02:24:09.763Z,42.83
2018-09-21T02:26:36.117Z,42.71
2018-09-21T02:29:02.591Z,42.80
2018-09-21T02:34:01.455Z,42.84
2018-09-21T02:36:27.826Z,42.92
2018-09-21T02:38:54.301Z,42.99
2018-09-21T02:41:20.679Z,43.12
2018-09-21T02:43:47.128Z,43.08
2018-09-21T02:46:13.499Z,43.11
2018-09-21T02:48:39.949Z,43.25
2018-09-21T02:51:06.296Z,43.14
2018-09-21T02:53:32.899Z,43.17
2018-09-21T02:55:59.301Z,43.25
2018-09-21T02:58:25.680Z,43.33
2018-09-21T03:00:52.171Z,43.45
2018-09-21T03:03:18.442Z,43.54
2018-09-21T03:05:44.854Z,43.58
2018-09-21T03:08:11.268Z,43.54
2018-09-21T03:10:37.619Z,43.67
2018-09-21T03:13:03.962Z,43.53
2018-09-21T03:15:30.350Z,43.52
2018-09-21T03:17:56.729Z,43.64
2018-09-21T03:20:23.189Z,43.64
2018-09-21T03:22:49.594Z,43.74
2018-09-21T03:25:15.937Z,43.85
2018-09-21T03:27:42.303Z,43.69
2018-09-21T03:30:08.668Z,43.69
2018-09-21T03:32:35.207Z,43.56
2018-09-21T03:35:01.664Z,43.53
2018-09-21T03:37:28.064Z,43.32
2018-09-21T03:39:54.462Z,43.39
2018-09-21T03:42:20.882Z,43.18
2018-09-21T03:44:47.247Z,43.12
2018-09-21T03:47:13.641Z,43.18
2018-09-21T03:49:40.031Z,43.13
2018-09-21T03:52:06.401Z,43.16
2018-09-21T03:54:32.788Z,43.26
2018-09-21T03:56:59.138Z,43.19
2018-09-21T03:59:25.526Z,43.19
2018-09-21T04:01:51.855Z,43.47
2018-09-21T04:04:18.253Z,43.32
2018-09-21T04:06:44.853Z,43.23
2018-09-21T04:09:11.210Z,43.23
2018-09-21T04:11:37.616Z,43.32
2018-09-21T04:14:04.127Z,43.38
2018-09-21T04:16:30.505Z,43.38
2018-09-21T04:18:56.884Z,43.36
2018-09-21T04:21:23.243Z,43.34
2018-09-21T04:23:49.602Z,43.29
2018-09-21T04:26:16.008Z,43.31
2018-09-21T04:28:44.491Z,43.32
2018-09-21T04:31:11.228Z,43.30
2018-09-21T04:33:37.629Z,43.33
2018-09-21T04:36:04.047Z,43.37
2018-09-21T04:38:30.396Z,43.32
2018-09-21T04:40:56.755Z,43.42
2018-09-21T04:43:23.114Z,43.42
2018-09-21T04:45:49.748Z,43.52
2018-09-21T04:48:16.160Z,43.43
2018-09-21T04:50:42.497Z,43.44
2018-09-21T04:53:08.889Z,43.58
2018-09-21T04:55:35.227Z,43.63
2018-09-21T04:58:01.646Z,43.55
2018-09-21T05:00:28.056Z,43.72
2018-09-21T05:02:54.459Z,43.58
2018-09-21T05:05:20.809Z,43.60
2018-09-21T05:07:47.166Z,43.58
2018-09-21T05:10:13.517Z,43.61
2018-09-21T05:12:39.941Z,43.46
2018-09-21T05:15:06.298Z,43.07
2018-09-21T05:17:32.716Z,43.16
2018-09-21T05:19:59.150Z,42.94
2018-09-21T05:22:25.506Z,43.12
2018-09-21T05:24:51.929Z,43.02
2018-09-21T05:27:18.282Z,42.81
2018-09-21T05:29:44.703Z,42.72
2018-09-21T05:32:11.047Z,42.96
2018-09-21T05:34:37.496Z,42.92
2018-09-21T05:37:03.963Z,42.84
2018-09-21T05:39:30.370Z,42.81
2018-09-21T05:41:56.862Z,42.96
2018-09-21T05:44:23.248Z,42.90
2018-09-21T05:46:49.655Z,42.81
2018-09-21T05:49:16.185Z,42.72
2018-09-21T05:51:42.677Z,42.74
2018-09-21T05:54:09.118Z,42.70
2018-09-21T05:56:35.551Z,42.70
2018-09-21T05:59:02.073Z,42.65
2018-09-21T06:01:28.468Z,42.62
2018-09-21T06:03:54.852Z,42.63
2018-09-21T06:06:21.308Z,42.55
2018-09-21T06:08:47.725Z,42.49
2018-09-21T06:11:14.256Z,42.49
2018-09-21T06:13:40.923Z,42.60
2018-09-21T06:16:07.430Z,42.45
2018-09-21T06:18:34.070Z,42.42
2018-09-21T06:21:00.526Z,42.23
2018-09-21T06:23:26.933Z,42.36
2018-09-21T06:25:53.403Z,42.11
2018-09-21T06:28:19.786Z,42.29
2018-09-21T06:30:46.137Z,42.30
2018-09-21T06:33:12.488Z,42.00
2018-09-21T06:35:38.902Z,42.17
2018-09-21T06:38:05.521Z,42.20
2018-09-21T06:40:31.897Z,42.10
2018-09-21T06:42:58.276Z,42.28
2018-09-21T06:45:24.845Z,42.19
2018-09-21T06:47:51.317Z,42.32
2018-09-21T06:50:17.659Z,42.14
2018-09-21T06:52:44.012Z,42.02
2018-09-21T06:55:10.445Z,42.09
2018-09-21T06:57:36.849Z,41.97
2018-09-21T07:00:03.211Z,42.01
2018-09-21T07:02:29.560Z,41.91
2018-09-21T07:04:55.978Z,41.97
2018-09-21T07:07:22.349Z,42.07
2018-09-21T07:09:48.713Z,41.94
2018-09-21T07:12:15.068Z,42.02
2018-09-21T07:14:41.462Z,41.94
2018-09-21T07:17:07.943Z,41.92
2018-09-21T07:19:34.302Z,42.21
2018-09-21T07:22:00.683Z,41.99
2018-09-21T07:24:27.230Z,42.13
2018-09-21T07:26:53.626Z,41.94
2018-09-21T07:29:19.995Z,42.04
2018-09-21T07:31:46.391Z,41.90
2018-09-21T07:34:12.756Z,41.87
2018-09-21T07:36:39.215Z,41.90
2018-09-21T07:39:05.739Z,42.07
2018-09-21T07:41:32.095Z,41.84
2018-09-21T07:43:59.197Z,42.07
2018-09-21T07:46:25.692Z,41.91
2018-09-21T07:48:52.107Z,41.90
2018-09-21T07:51:18.463Z,41.81
2018-09-21T07:53:45.055Z,41.78
2018-09-21T07:56:11.604Z,41.78
2018-09-21T07:58:38.019Z,41.65
2018-09-21T08:01:04.407Z,41.84
2018-09-21T08:03:30.773Z,41.68
2018-09-21T08:05:57.147Z,41.78
2018-09-21T08:08:23.521Z,41.65
2018-09-21T08:10:49.858Z,41.62
2018-09-21T08:13:16.198Z,41.49
2018-09-21T08:15:42.552Z,41.42
2018-09-21T08:18:08.895Z,41.36
2018-09-21T08:20:35.277Z,41.49
2018-09-21T08:23:01.653Z,41.33
2018-09-21T08:25:27.995Z,41.33
2018-09-21T08:27:54.396Z,41.25
2018-09-21T08:30:20.923Z,41.33
2018-09-21T08:32:47.341Z,41.41
2018-09-21T08:35:13.695Z,41.29
2018-09-21T08:37:40.103Z,41.40
2018-09-21T08:40:06.461Z,41.51
2018-09-21T08:42:32.796Z,41.42
2018-09-21T08:44:59.194Z,41.47
2018-09-21T08:47:25.546Z,41.40
2018-09-21T08:49:51.885Z,41.78
2018-09-21T08:52:18.277Z,41.65
2018-09-21T08:54:44.627Z,41.60
2018-09-21T08:57:11.009Z,41.38
2018-09-21T08:59:37.395Z,41.58
2018-09-21T09:02:03.835Z,41.52
2018-09-21T09:04:30.212Z,41.78
2018-09-21T09:06:56.761Z,41.72
2018-09-21T09:09:23.130Z,41.70
2018-09-21T09:11:49.507Z,41.72
2018-09-21T09:14:15.911Z,41.73
2018-09-21T09:16:42.276Z,41.86
2018-09-21T09:19:08.670Z,41.97
2018-09-21T09:21:35.059Z,41.77
2018-09-21T09:24:01.405Z,41.99
2018-09-21T09:26:27.831Z,42.11
2018-09-21T09:28:54.178Z,42.14
2018-09-21T09:31:20.535Z,42.33
2018-09-21T09:33:46.883Z,42.43
2018-09-21T09:36:13.294Z,42.52
2018-09-21T09:38:39.677Z,42.66
2018-09-21T09:41:06.062Z,42.86
2018-09-21T09:43:32.413Z,42.62
2018-09-21T09:45:58.773Z,42.78
2018-09-21T09:48:25.199Z,42.71
2018-09-21T09:50:51.767Z,42.87
2018-09-21T09:53:18.127Z,42.77
2018-09-21T09:55:44.490Z,42.78
2018-09-21T09:58:10.905Z,42.86
2018-09-21T10:00:37.265Z,42.77
2018-09-21T10:03:03.653Z,42.92
2018-09-21T10:05:30.008Z,42.98
2018-09-21T10:07:56.591Z,43.29
2018-09-21T10:10:22.994Z,42.94
2018-09-21T10:12:49.351Z,43.03
2018-09-21T10:15:15.782Z,43.22
2018-09-21T10:17:43.818Z,43.43
2018-09-21T10:20:10.302Z,43.26
2018-09-21T10:22:36.729Z,43.40
2018-09-21T10:25:03.150Z,43.60
2018-09-21T10:27:29.830Z,43.64
2018-09-21T10:29:56.192Z,43.75
2018-09-21T10:32:22.569Z,43.84
2018-09-21T10:34:49.023Z,43.76
2018-09-21T10:37:15.411Z,43.66
2018-09-21T10:39:41.893Z,43.89
2018-09-21T10:42:08.344Z,43.89
2018-09-21T10:44:34.760Z,43.62
2018-09-21T10:47:01.255Z,43.77
2018-09-21T10:49:27.675Z,43.72
2018-09-21T10:51:54.074Z,43.77
2018-09-21T10:54:20.452Z,43.77
2018-09-21T10:56:46.885Z,43.66
2018-09-21T10:59:13.266Z,43.58
2018-09-21T11:01:39.669Z,43.55
2018-09-21T11:04:06.093Z,43.40
2018-09-21T11:06:32.492Z,43.52
2018-09-21T11:08:58.885Z,43.69
2018-09-21T11:11:25.308Z,43.55
2018-09-21T11:13:51.687Z,43.39
2018-09-21T11:16:18.038Z,43.58
2018-09-21T11:18:44.392Z,43.29
2018-09-21T11:21:10.857Z,43.19
2018-09-21T11:23:37.269Z,43.29
2018-09-21T11:26:03.674Z,43.31
2018-09-21T11:28:30.072Z,42.95
2018-09-21T11:30:56.523Z,42.90
2018-09-21T11:33:22.971Z,42.89
2018-09-21T11:35:49.343Z,42.73
2018-09-21T11:40:47.592Z,42.62
2018-09-21T11:43:13.941Z,42.55
2018-09-21T11:45:40.298Z,42.24
2018-09-21T11:48:06.710Z,42.16
2018-09-21T11:50:33.886Z,42.17
2018-09-21T11:53:00.251Z,41.86
2018-09-21T11:55:26.631Z,41.75
2018-09-21T11:57:52.969Z,41.66
2018-09-21T12:00:19.329Z,41.38
2018-09-21T12:02:45.715Z,41.19
2018-09-21T12:05:12.071Z,41.13
2018-09-21T12:07:38.605Z,41.11
2018-09-21T12:10:04.999Z,40.91
2018-09-21T12:12:31.432Z,40.78
2018-09-21T12:14:57.937Z,40.68
2018-09-21T12:17:24.300Z,40.54
2018-09-21T12:19:50.722Z,40.61
2018-09-21T12:22:17.080Z,40.68
2018-09-21T12:24:43.455Z,40.41
2018-09-21T12:27:09.884Z,40.36
2018-09-21T12:29:36.303Z,40.20
2018-09-21T12:32:02.658Z,40.12
2018-09-21T12:34:29.041Z,40.13
2018-09-21T12:36:55.551Z,40.04
2018-09-21T12:39:21.926Z,40.00
2018-09-21T12:41:48.294Z,39.82
2018-09-21T12:44:14.666Z,39.72
2018-09-21T12:46:41.075Z,39.82
2018-09-21T12:49:07.460Z,39.68
2018-09-21T12:51:34.001Z,39.69
2018-09-21T12:54:00.374Z,39.81
2018-09-21T12:56:26.860Z,39.68
2018-09-21T12:58:53.423Z,39.64
2018-09-21T13:01:19.786Z,39.45
2018-09-21T13:03:46.375Z,39.49
2018-09-21T13:06:12.885Z,39.58
2018-09-21T13:08:39.270Z,39.52
2018-09-21T13:11:05.695Z,39.52
2018-09-21T13:13:32.061Z,39.69
2018-09-21T13:15:58.417Z,39.52
2018-09-21T13:18:24.796Z,39.57
2018-09-21T13:20:51.252Z,39.63
2018-09-21T13:23:17.696Z,39.54
2018-09-21T13:25:44.140Z,39.47
2018-09-21T13:28:10.482Z,39.49
2018-09-21T13:30:36.829Z,39.39
2018-09-21T13:33:03.246Z,39.48
2018-09-21T13:35:29.636Z,39.56
2018-09-21T13:37:56.014Z,39.56
2018-09-21T13:40:22.411Z,39.48
2018-09-21T13:42:48.744Z,39.45
2018-09-21T13:45:15.309Z,39.16
2018-09-21T13:47:41.720Z,39.24
2018-09-21T13:50:08.109Z,39.10
2018-09-21T13:52:34.457Z,38.91
2018-09-21T13:55:00.808Z,38.70
2018-09-21T13:57:27.243Z,38.62
2018-09-21T13:59:53.667Z,38.52
2018-09-21T14:02:20.135Z,38.45
2018-09-21T14:04:46.530Z,38.51
2018-09-21T14:07:12.943Z,38.30
2018-09-21T14:09:39.433Z,38.33
2018-09-21T14:12:05.847Z,38.18
2018-09-21T14:14:32.214Z,37.92
2018-09-21T14:16:58.559Z,37.84
2018-09-21T14:19:24.962Z,37.80
2018-09-21T14:21:51.351Z,37.59
2018-09-21T14:24:17.810Z,37.68
2018-09-21T14:26:44.183Z,37.58
2018-09-21T14:29:10.666Z,37.44
2018-09-21T14:31:37.004Z,37.43
2018-09-21T14:34:03.408Z,37.27
2018-09-21T14:36:29.761Z,37.22
2018-09-21T14:38:56.172Z,37.29
2018-09-21T14:41:22.579Z,37.20
2018-09-21T14:43:48.987Z,37.14
2018-09-21T14:46:15.367Z,37.17
2018-09-21T14:48:41.751Z,36.94
2018-09-21T14:51:08.174Z,37.01
2018-09-21T14:53:34.569Z,36.65
2018-09-21T14:56:00.946Z,36.71
2018-09-21T14:58:27.363Z,36.98
2018-09-21T15:00:53.804Z,36.84
2018-09-21T15:03:20.165Z,36.97
2018-09-21T15:05:46.584Z,36.82
2018-09-21T15:08:13.005Z,37.09
2018-09-21T15:10:39.363Z,37.14
2018-09-21T15:13:05.725Z,37.17
2018-09-21T15:15:32.069Z,37.14
2018-09-21T15:17:58.463Z,37.15
2018-09-21T15:20:24.835Z,37.28
2018-09-21T15:22:51.304Z,37.34
2018-09-21T15:25:17.737Z,37.30
2018-09-21T15:27:44.298Z,37.31
2018-09-21T15:30:10.660Z,37.37
2018-09-21T15:32:37.105Z,37.36
2018-09-21T15:35:03.491Z,37.43
2018-09-21T15:37:29.925Z,37.43
2018-09-21T15:39:56.335Z,37.46
2018-09-21T15:42:22.695Z,37.57
2018-09-21T15:44:49.065Z,37.59
2018-09-21T15:47:15.448Z,37.55
2018-09-21T15:49:41.887Z,37.56
2018-09-21T15:52:08.284Z,37.54
2018-09-21T15:54:34.661Z,37.76
2018-09-21T15:57:02.252Z,37.75
2018-09-21T15:59:28.612Z,37.71
2018-09-21T16:01:55.071Z,37.76
2018-09-21T16:04:21.423Z,37.75
2018-09-21T16:06:47.779Z,37.87
2018-09-21T16:09:14.161Z,37.91
2018-09-21T16:11:40.627Z,37.95
2018-09-21T16:14:07.017Z,37.90
2018-09-21T16:16:33.424Z,37.98
2018-09-21T16:18:59.821Z,38.04
2018-09-21T16:21:26.216Z,38.08
2018-09-21T16:23:52.767Z,38.12
2018-09-21T16:26:19.243Z,38.22
2018-09-21T16:28:45.674Z,38.11
2018-09-21T16:31:12.037Z,38.25
2018-09-21T16:33:38.388Z,38.36
2018-09-21T16:36:04.899Z,38.35
2018-09-21T16:38:32.047Z,38.38
2018-09-21T16:40:58.434Z,38.45
2018-09-21T16:43:24.810Z,38.56
2018-09-21T16:45:51.150Z,38.59
2018-09-21T16:48:18.136Z,38.61
2018-09-21T16:50:44.654Z,38.70
2018-09-21T16:53:10.974Z,38.70
2018-09-21T16:55:37.385Z,38.80
2018-09-21T16:58:03.855Z,38.91
2018-09-21T17:00:30.214Z,38.95
2018-09-21T17:02:56.581Z,38.87
2018-09-21T17:05:23.117Z,38.79
2018-09-21T17:07:49.523Z,38.87
2018-09-21T17:10:16.054Z,38.81
2018-09-21T17:12:42.407Z,39.15
2018-09-21T17:15:08.796Z,39.22
2018-09-21T17:17:35.174Z,39.35
2018-09-21T17:20:01.593Z,39.40
2018-09-21T17:22:27.962Z,39.40
2018-09-21T17:24:54.325Z,39.46
2018-09-21T17:27:20.724Z,39.52
2018-09-21T17:29:47.188Z,39.65
2018-09-21T17:32:13.591Z,39.66
2018-09-21T17:34:40.049Z,39.69
2018-09-21T17:37:06.595Z,39.82
2018-09-21T17:39:32.974Z,39.74
2018-09-21T17:41:59.346Z,39.65
2018-09-21T17:44:25.722Z,39.66
2018-09-21T17:46:52.099Z,39.78
2018-09-21T17:49:18.546Z,39.77
2018-09-21T17:51:44.944Z,39.62
2018-09-21T17:54:11.293Z,39.64
2018-09-21T17:56:37.639Z,39.52
2018-09-21T17:59:03.974Z,39.67
2018-09-21T18:01:30.298Z,39.81
2018-09-21T18:03:56.677Z,39.68
2018-09-21T18:06:23.238Z,39.90
2018-09-21T18:11:22.066Z,39.90
2018-09-21T18:13:48.479Z,40.00
2018-09-21T18:16:14.928Z,39.85
2018-09-21T18:18:41.230Z,39.73
2018-09-21T18:21:07.585Z,39.87
2018-09-21T18:23:34.065Z,39.75
2018-09-21T18:26:00.495Z,39.90
2018-09-21T18:28:26.826Z,39.91
2018-09-21T18:30:53.246Z,39.81
2018-09-21T18:33:19.646Z,39.88
2018-09-21T18:35:46.182Z,39.78
2018-09-21T18:38:12.795Z,39.81
2018-09-21T18:40:39.135Z,39.68
2018-09-21T18:43:05.471Z,39.70
2018-09-21T18:45:31.829Z,39.59
2018-09-21T18:47:58.239Z,39.79
2018-09-21T18:50:24.844Z,39.60
2018-09-21T18:52:51.315Z,39.86
2018-09-21T18:55:17.849Z,39.80
2018-09-21T18:57:44.204Z,40.04
2018-09-21T19:00:10.576Z,39.72
2018-09-21T19:02:36.995Z,39.04
2018-09-21T19:05:03.452Z,39.44
2018-09-21T19:07:29.836Z,39.43
2018-09-21T19:09:56.210Z,39.36
2018-09-21T19:12:22.572Z,39.52
2018-09-21T19:14:49.112Z,39.40
2018-09-21T19:17:15.460Z,39.43
2018-09-21T19:19:41.802Z,39.66
2018-09-21T19:22:08.192Z,39.49
2018-09-21T19:24:34.636Z,39.23
2018-09-21T19:27:00.996Z,39.45
2018-09-21T19:29:27.501Z,39.38
2018-09-21T19:31:53.833Z,39.56
2018-09-21T19:34:20.215Z,39.46
2018-09-21T19:36:46.562Z,39.48
2018-09-21T19:39:12.949Z,39.29
2018-09-21T19:41:39.359Z,39.51
2018-09-21T19:44:05.894Z,39.30
2018-09-21T19:46:32.374Z,39.58
2018-09-21T19:48:58.721Z,39.30
2018-09-21T19:51:25.089Z,39.42
2018-09-21T19:53:51.519Z,39.20
2018-09-21T19:56:17.952Z,39.32
2018-09-21T19:58:44.303Z,39.33
2018-09-21T20:01:10.717Z,39.32
2018-09-21T20:03:37.126Z,39.38
2018-09-21T20:06:03.485Z,39.14
2018-09-21T20:08:30.015Z,39.17
2018-09-21T20:10:56.418Z,39.24
2018-09-21T20:13:22.728Z,39.15
2018-09-21T20:15:49.087Z,39.23
2018-09-21T20:18:15.449Z,39.14
2018-09-21T20:20:41.856Z,39.14
2018-09-21T20:23:08.312Z,39.19
2018-09-21T20:25:34.685Z,39.20
2018-09-21T20:28:01.049Z,39.03
2018-09-21T20:30:27.421Z,39.25
2018-09-21T20:32:53.780Z,39.06
2018-09-21T20:35:20.344Z,39.07
2018-09-21T20:37:46.801Z,39.33
2018-09-21T20:40:13.310Z,39.36
2018-09-21T20:42:39.666Z,39.10
2018-09-21T20:45:06.019Z,39.20
2018-09-21T20:47:32.407Z,39.09
2018-09-21T20:49:58.805Z,39.19
2018-09-21T20:52:25.250Z,39.27
2018-09-21T20:54:51.646Z,39.12
2018-09-21T20:57:18.062Z,39.18
2018-09-21T20:59:44.418Z,39.32
2018-09-21T21:02:10.843Z,39.41
2018-09-21T21:04:37.234Z,39.10
2018-09-21T21:07:03.639Z,39.26
2018-09-21T21:09:30.021Z,39.33
2018-09-21T21:11:56.408Z,39.36
2018-09-21T21:14:22.776Z,39.36
2018-09-21T21:16:49.164Z,39.41
2018-09-21T21:19:15.533Z,39.23
2018-09-21T21:21:41.965Z,39.40
2018-09-21T21:24:08.402Z,39.42
2018-09-21T21:26:34.749Z,39.27
2018-09-21T21:29:01.103Z,39.52
2018-09-21T21:31:27.511Z,39.50
2018-09-21T21:33:53.853Z,39.53
2018-09-21T21:36:20.193Z,39.43
2018-09-21T21:38:46.562Z,39.52
2018-09-21T21:41:12.951Z,39.59
2018-09-21T21:43:39.313Z,39.47
2018-09-21T21:46:05.671Z,39.45
2018-09-21T21:48:32.056Z,39.52
2018-09-21T21:50:58.418Z,39.43
2018-09-21T21:53:24.795Z,39.57
2018-09-21T21:55:51.154Z,39.29
2018-09-21T21:58:17.504Z,39.48
2018-09-21T22:00:43.893Z,39.37
2018-09-21T22:03:10.314Z,39.24
2018-09-21T22:05:36.657Z,39.55
2018-09-21T22:08:03.067Z,39.63
2018-09-21T22:10:30.570Z,39.47
2018-09-21T22:12:57.602Z,39.59
2018-09-21T22:17:55.400Z,39.54
2018-09-21T22:20:22.636Z,39.52
2018-09-21T22:22:49.146Z,39.50
2018-09-21T22:25:15.527Z,39.56
2018-09-21T22:27:45.520Z,39.68
2018-09-21T22:30:14.074Z,39.54
2018-09-21T22:32:40.488Z,39.72
2018-09-21T22:35:07.901Z,39.73
2018-09-21T22:37:35.567Z,39.69
2018-09-21T22:40:02.699Z,39.71
2018-09-21T22:42:30.679Z,39.73
2018-09-21T22:44:57.134Z,39.86
2018-09-21T22:47:23.508Z,39.78
2018-09-21T22:49:49.876Z,39.81
2018-09-21T22:52:16.278Z,39.74
2018-09-21T22:54:42.636Z,39.95
2018-09-21T22:57:09.019Z,39.85
2018-09-21T22:59:35.350Z,39.97
2018-09-21T23:02:01.693Z,39.92
2018-09-21T23:04:28.090Z,40.04
2018-09-21T23:06:54.457Z,40.07
2018-09-21T23:09:20.786Z,39.97
2018-09-21T23:11:47.149Z,40.16
2018-09-21T23:14:13.582Z,40.20
2018-09-21T23:16:39.999Z,40.23
2018-09-21T23:19:06.430Z,40.22
2018-09-21T23:21:32.768Z,40.33
2018-09-21T23:23:59.144Z,40.30
2018-09-21T23:26:25.506Z,40.36
2018-09-21T23:28:51.861Z,40.26
2018-09-21T23:31:18.205Z,40.44
2018-09-21T23:33:44.621Z,40.45
2018-09-21T23:36:10.973Z,40.50
2018-09-21T23:38:37.347Z,40.49
2018-09-21T23:41:03.704Z,40.59
2018-09-21T23:43:30.137Z,40.59
2018-09-21T23:45:56.570Z,40.68
2018-09-21T23:48:22.936Z,40.75
2018-09-21T23:50:49.447Z,40.79
2018-09-21T23:53:15.845Z,40.79
2018-09-21T23:55:42.175Z,40.85
2018-09-21T23:58:08.531Z,40.89
